Погода Марсакслоккна неделю

Аура, Мальта

13 - 19 июля
  • 13июля
    Сегодня
    +25°
    +33°
    Ясно и безоблачно
    ВремяПогодаТемператураВлажностьДавлениеВетер, м/сВероятность осадков
    02:00Ясно и безоблачно+26°C81 %759 мм0.8 м/с1 %
    05:00Ясно и безоблачно+25°C88 %759 мм2.1 м/с1 %
    08:00Ясно и безоблачно+29°C77 %759 мм2.3 м/с1 %
    11:00Ясно и безоблачно+32°C55 %759 мм1.1 м/с1 %
    14:00Ясно и безоблачно+33°C55 %759 мм2.2 м/с1 %
    17:00Ясно и безоблачно+33°C52 %758 мм2.1 м/с1 %
    20:00Ясно и безоблачно+30°C59 %758 мм2.4 м/с1 %
    23:00Ясно и безоблачно+27°C74 %759 мм1.7 м/с1 %
  • 14июля
    Воскресенье
    +26°
    +34°
    Ясно и безоблачно
    ВремяПогодаТемператураВлажностьДавлениеВетер, м/сВероятность осадков
    02:00Ясно и безоблачно+26°C82 %759 мм1.2 м/с1 %
    05:00Ясно и безоблачно+26°C91 %759 мм1.6 м/с1 %
    08:00Ясно и безоблачно+29°C80 %759 мм1.3 м/с1 %
    11:00Ясно и безоблачно+32°C60 %759 мм1.1 м/с1 %
    14:00Ясно и безоблачно+33°C58 %759 мм2.7 м/с1 %
    17:00Ясно и безоблачно+33°C53 %758 мм2.5 м/с1 %
    20:00Ясно и безоблачно+30°C64 %758 мм1.9 м/с1 %
    23:00Ясно и безоблачно+28°C76 %759 мм0.7 м/с1 %
  • 15июля
    Понедельник
    +26°
    +34°
    Ясно и безоблачно
    ВремяПогодаТемператураВлажностьДавлениеВетер, м/сВероятность осадков
    02:00Ясно и безоблачно+27°C83 %758 мм1.0 м/с1 %
    05:00Ясно и безоблачно+26°C91 %758 мм2.2 м/с1 %
    08:00Ясно и безоблачно+29°C78 %759 мм1.7 м/с1 %
    11:00Ясно и безоблачно+32°C60 %759 мм1.2 м/с1 %
    14:00Ясно и безоблачно+33°C57 %759 мм0.1 м/с1 %
    17:00Ясно и безоблачно+33°C57 %758 мм1.4 м/с1 %
    20:00Ясно и безоблачно+30°C63 %758 мм2.7 м/с1 %
    23:00Ясно и безоблачно+28°C72 %759 мм1.5 м/с1 %
  • 16июля
    Вторник
    +24°
    +35°
    Ясно и безоблачно
    ВремяПогодаТемператураВлажностьДавлениеВетер, м/сВероятность осадков
    02:00Ясно и безоблачно+27°C81 %758 мм1.6 м/с1 %
    05:00Ясно и безоблачно+27°C91 %758 мм1.9 м/с1 %
    08:00Ясно и безоблачно+29°C80 %759 мм1.9 м/с1 %
    11:00Ясно и безоблачно+33°C59 %760 мм1.3 м/с1 %
    14:00Ясно и безоблачно+34°C58 %760 мм1.1 м/с1 %
    17:00Ясно и безоблачно+33°C53 %759 мм2.8 м/с1 %
    20:00Ясно и безоблачно+31°C69 %759 мм3.7 м/с1 %
    23:00Ясно и безоблачно+28°C77 %759 мм2.1 м/с1 %
  • 17июля
    Среда
    +25°
    +34°
    Ясно и безоблачно
    ВремяПогодаТемператураВлажностьДавлениеВетер, м/сВероятность осадков
    02:00Ясно и безоблачно+27°C83 %759 мм2.7 м/с1 %
    05:00Ясно и безоблачно+25°C89 %758 мм1.5 м/с1 %
    08:00Ясно и безоблачно+29°C84 %760 мм1.4 м/с1 %
    11:00Ясно и безоблачно+32°C61 %760 мм2.0 м/с1 %
    14:00Ясно и безоблачно+33°C49 %760 мм2.7 м/с1 %
    17:00Ясно и безоблачно+33°C49 %760 мм1.3 м/с1 %
    20:00Ясно и безоблачно+29°C63 %760 мм1.6 м/с1 %
    23:00Ясно и безоблачно+28°C78 %760 мм2.6 м/с1 %
Мы используем cookies
Соглашаюсь